Time;durP1;ratioP1;P1;durP2;ratioP2;P2;SDS_P1;SDS_P2;PMS_P1;PMS_P2;Temp;Humidity;BMP_temperature;BMP_pressure;BME280_temperature;BME280_humidity;BME280_pressure;Samples;Min_cycle;Max_cycle;Signal;HPM_P1;HPM_P2
2021/07/28 06:06:35;;;;;;;21.50;8.00;;;;;;;26.07;51.90;100251.78;1516362;85;25692;-60
2021/07/28 06:09:01;;;;;;;22.82;7.75;;;;;;;26.10;51.71;100256.69;1469296;87;21517;-61
2021/07/28 06:11:28;;;;;;;26.30;7.30;;;;;;;26.14;51.51;100252.11;1488376;88;21647;-61
2021/07/28 06:13:54;;;;;;;36.10;8.40;;;;;;;26.17;51.38;100248.89;1471991;88;21515;-59
2021/07/28 06:16:20;;;;;;;18.35;6.80;;;;;;;26.21;51.28;100241.87;1476735;87;21559;-59
2021/07/28 06:18:47;;;;;;;22.25;6.85;;;;;;;26.25;51.20;100238.94;1489738;88;21441;-60
2021/07/28 06:21:13;;;;;;;20.37;7.60;;;;;;;26.30;51.09;100247.14;1481299;88;21567;-60
2021/07/28 06:23:39;;;;;;;19.17;6.05;;;;;;;26.34;50.95;100249.06;1472083;87;21558;-60
2021/07/28 06:26:08;;;;;;;22.48;6.67;;;;;;;26.40;50.82;100249.12;1474871;87;21536;-59
2021/07/28 06:28:34;;;;;;;18.95;5.55;;;;;;;26.45;50.69;100249.17;1464776;87;21573;-60
2021/07/28 06:31:00;;;;;;;17.70;5.33;;;;;;;26.48;50.55;100250.83;1489028;88;21585;-60
2021/07/28 06:33:26;;;;;;;19.62;6.03;;;;;;;26.53;50.37;100252.27;1459055;88;21636;-60
2021/07/28 06:35:54;;;;;;;19.35;6.28;;;;;;;26.57;50.21;100253.92;1489059;88;21644;-60
2021/07/28 06:38:22;;;;;;;24.25;7.35;;;;;;;26.63;50.22;100252.08;1473326;88;21648;-60
2021/07/28 06:40:48;;;;;;;23.73;7.33;;;;;;;26.67;50.06;100255.90;1488063;88;21544;-59
2021/07/28 06:43:14;;;;;;;14.07;5.20;;;;;;;26.73;49.87;100264.39;1483291;88;21796;-60
2021/07/28 06:45:41;;;;;;;18.92;6.05;;;;;;;26.76;49.77;100266.05;1456884;89;21602;-61
2021/07/28 06:48:07;;;;;;;14.28;6.03;;;;;;;26.81;49.68;100261.72;1452982;89;22533;-60
2021/07/28 06:50:34;;;;;;;25.68;5.40;;;;;;;26.85;49.61;100266.39;1463078;89;22581;-61
2021/07/28 06:53:00;;;;;;;24.55;6.28;;;;;;;26.91;49.51;100265.34;1459578;89;22438;-60
2021/07/28 06:55:28;;;;;;;26.68;6.58;;;;;;;26.96;49.33;100257.79;1468488;89;21575;-60
2021/07/28 06:57:54;;;;;;;17.90;4.90;;;;;;;26.99;49.28;100248.58;1466657;89;21522;-60
2021/07/28 07:00:20;;;;;;;33.13;7.12;;;;;;;27.06;49.20;100253.77;1451063;89;22595;-59
2021/07/28 07:02:47;;;;;;;27.67;6.50;;;;;;;27.10;49.09;100251.34;1464487;89;21507;-60
2021/07/28 07:05:15;;;;;;;17.35;7.08;;;;;;;27.15;48.96;100250.03;1463637;89;21470;-60
2021/07/28 07:07:41;;;;;;;18.67;7.03;;;;;;;27.17;48.70;100245.19;1467717;89;21457;-60
2021/07/28 07:10:09;;;;;;;25.57;6.67;;;;;;;27.18;48.38;100252.25;1456419;89;21492;-59
2021/07/28 07:12:36;;;;;;;26.52;6.42;;;;;;;27.19;48.15;100247.11;1443171;89;21644;-59
2021/07/28 07:15:04;;;;;;;14.53;5.87;;;;;;;27.20;47.89;100251.45;1467558;89;21500;-58
2021/07/28 07:17:31;;;;;;;19.25;6.40;;;;;;;27.20;47.60;100248.20;1439443;89;22505;-60
2021/07/28 07:19:57;;;;;;;18.45;5.60;;;;;;;27.20;47.41;100240.59;1467323;89;21440;-60
2021/07/28 07:22:23;;;;;;;14.43;6.00;;;;;;;27.19;47.20;100241.13;1477737;89;22477;-60
2021/07/28 07:24:50;;;;;;;20.85;6.85;;;;;;;27.19;46.94;100240.33;1436445;89;21552;-60
2021/07/28 07:27:16;;;;;;;17.70;6.00;;;;;;;27.19;46.78;100240.33;1459914;89;21574;-59
2021/07/28 07:29:43;;;;;;;21.87;6.20;;;;;;;27.17;46.72;100242.47;1459767;89;21515;-59
2021/07/28 07:32:23;;;;;;;20.02;6.67;;;;;;;27.17;46.58;100237.05;1443452;89;21775;-60
2021/07/28 07:34:51;;;;;;;23.87;7.42;;;;;;;27.16;46.33;100240.81;1478512;86;21680;-60
2021/07/28 07:37:17;;;;;;;23.90;7.87;;;;;;;27.17;46.25;100237.85;1495570;86;21655;-59
2021/07/28 07:39:44;;;;;;;13.95;5.92;;;;;;;27.17;46.11;100237.05;1489758;86;21654;-60
2021/07/28 07:42:10;;;;;;;17.40;5.42;;;;;;;27.17;45.98;100237.05;1491988;86;21581;-59
2021/07/28 08:19:54;;;;;;;36.60;6.25;;;;;;;31.66;41.24;100201.38;1514245;85;22714;-81
2021/07/28 08:22:20;;;;;;;28.38;6.62;;;;;;;31.71;40.39;100204.05;1493005;86;21434;-81
2021/07/28 08:24:46;;;;;;;23.32;6.33;;;;;;;31.85;40.52;100202.22;1490511;87;22423;-81
2021/07/28 08:27:12;;;;;;;20.77;7.53;;;;;;;31.94;40.31;100196.09;1494536;87;21470;-81
2021/07/28 08:29:38;;;;;;;40.65;11.40;;;;;;;32.01;40.57;100200.66;1484240;87;21537;-81
2021/07/28 08:32:05;;;;;;;27.85;7.47;;;;;;;32.03;40.73;100192.97;1489377;87;21456;-81
2021/07/28 08:34:37;;;;;;;29.32;6.40;;;;;;;32.19;41.01;100199.02;1490447;87;21499;-80
2021/07/28 08:37:09;;;;;;;32.48;6.78;;;;;;;32.45;40.80;100195.31;1488956;87;21419;-82
2021/07/28 08:39:37;;;;;;;24.37;6.65;;;;;;;32.52;41.13;100193.05;1482984;87;22438;-81
2021/07/28 08:42:05;;;;;;;18.70;6.05;;;;;;;32.59;40.07;100194.83;1487585;87;21440;-81
2021/07/28 08:44:35;;;;;;;42.58;7.42;;;;;;;32.46;38.91;100196.98;1487865;87;21537;-82
2021/07/28 08:47:03;;;;;;;21.50;6.55;;;;;;;32.47;39.63;100198.60;1494758;87;22410;-81
2021/07/28 08:49:33;;;;;;;27.65;6.85;;;;;;;32.51;39.64;100192.23;1488169;87;21493;-81
2021/07/28 08:52:00;;;;;;;21.97;6.83;;;;;;;32.55;39.04;100193.25;1526850;90;21551;-80
2021/07/28 08:54:27;;;;;;;17.92;5.75;;;;;;;32.58;38.79;100187.73;1500899;87;21440;-81
2021/07/28 08:56:57;;;;;;;22.82;7.40;;;;;;;32.59;38.50;100187.97;1469104;87;22321;-81
2021/07/28 08:59:31;;;;;;;37.10;7.03;;;;;;;32.68;38.29;100183.42;1486608;87;21485;-81
2021/07/28 09:02:01;;;;;;;36.30;6.35;;;;;;;32.79;38.06;100176.65;1444041;90;22380;-81
2021/07/28 09:04:28;;;;;;;23.07;5.83;;;;;;;32.90;36.22;100183.33;1510006;87;21441;-81
2021/07/28 09:06:56;;;;;;;27.27;5.47;;;;;;;32.89;36.51;100187.19;1492274;87;23439;-81
2021/07/28 09:09:24;;;;;;;16.00;5.15;;;;;;;32.94;36.83;100185.70;1488604;87;21603;-81
2021/07/28 09:12:01;;;;;;;19.30;5.80;;;;;;;33.04;36.75;100177.33;1486647;87;21500;-83
2021/07/28 09:14:31;;;;;;;25.27;5.67;;;;;;;33.20;37.02;100172.34;1489080;87;21442;-81
2021/07/28 09:17:17;;;;;;;19.67;5.65;;;;;;;33.21;36.30;100167.94;1494513;87;21463;-81
2021/07/28 09:19:49;;;;;;;18.67;5.33;;;;;;;33.33;36.16;100161.12;1486601;86;21513;-81
2021/07/28 09:22:19;;;;;;;28.00;5.72;;;;;;;33.50;34.57;100168.17;1487601;87;22081;-81
2021/07/28 09:25:31;;;;;;;30.62;6.97;;;;;;;33.59;34.29;100164.17;1450242;90;21539;-81
2021/07/28 09:27:53;;;;;;;21.37;5.92;;;;;;;33.60;34.22;100159.73;1472871;87;22727;-81
2021/07/28 09:30:31;;;;;;;22.32;6.72;;;;;;;33.53;34.45;100162.09;1493828;87;21433;-81
2021/07/28 09:33:07;;;;;;;21.05;6.37;;;;;;;33.48;34.67;100157.48;1494410;87;21447;-82
2021/07/28 09:35:51;;;;;;;18.15;4.87;;;;;;;33.54;34.63;100152.73;1489578;86;21477;-81
2021/07/28 09:38:36;;;;;;;24.35;6.67;;;;;;;33.61;34.67;100155.89;1487884;87;21916;-80
2021/07/28 09:41:26;;;;;;;34.63;6.10;;;;;;;33.77;34.36;100156.91;1404136;91;21503;-82
2021/07/28 09:44:00;;;;;;;21.27;6.00;;;;;;;33.79;34.99;100149.98;1472684;87;21471;-81
2021/07/28 09:46:39;;;;;;;24.02;6.92;;;;;;;33.88;34.92;100145.95;1466365;88;21500;-81
2021/07/28 09:49:11;;;;;;;24.77;6.72;;;;;;;34.06;34.61;100155.96;1479717;87;21648;-81
2021/07/28 09:51:44;;;;;;;17.95;6.20;;;;;;;34.11;34.79;100142.12;1482171;87;21501;-81
2021/07/28 09:54:12;;;;;;;25.45;7.30;;;;;;;34.13;34.52;100134.38;1480072;87;22387;-81
2021/07/28 09:56:49;;;;;;;26.57;6.45;;;;;;;34.24;35.95;100129.99;1486548;87;21689;-81
2021/07/28 09:59:17;;;;;;;18.67;6.62;;;;;;;34.39;35.98;100130.20;1486051;87;21434;-81
2021/07/28 10:01:47;;;;;;;18.73;6.57;;;;;;;34.57;35.60;100122.31;1486319;87;21456;-81
2021/07/28 10:04:19;;;;;;;23.47;6.70;;;;;;;34.75;35.46;100119.07;1486949;87;21449;-81
2021/07/28 10:06:53;;;;;;;23.77;6.40;;;;;;;34.79;33.86;100125.00;1495395;87;21677;-82
2021/07/28 10:09:45;;;;;;;17.30;6.03;;;;;;;34.62;33.06;100118.63;1486842;87;21425;-82
2021/07/28 10:12:13;;;;;;;23.67;6.22;;;;;;;34.53;33.57;100111.12;1452338;90;21516;-82
2021/07/28 10:14:42;;;;;;;19.20;6.45;;;;;;;34.60;34.03;100109.31;1449717;90;21545;-81
2021/07/28 10:17:12;;;;;;;21.48;6.05;;;;;;;34.67;33.97;100107.48;1438011;90;21662;-81
2021/07/28 10:19:39;;;;;;;30.27;6.90;;;;;;;34.67;32.86;100107.48;1430417;91;21464;-82
2021/07/28 10:22:07;;;;;;;34.55;6.78;;;;;;;34.80;34.42;100103.25;1438125;91;21507;-81
2021/07/28 10:24:34;;;;;;;33.98;6.97;;;;;;;34.96;34.52;100094.56;1434676;90;21581;-82
2021/07/28 10:27:02;;;;;;;28.10;6.30;;;;;;;35.04;33.82;100097.36;1434407;90;22409;-81
2021/07/28 10:29:29;;;;;;;20.27;6.90;;;;;;;35.09;34.19;100090.11;1430114;90;21477;-81
2021/07/28 10:31:56;;;;;;;18.60;6.62;;;;;;;35.11;33.33;100088.66;1443087;90;22403;-81
2021/07/28 10:34:29;;;;;;;18.10;6.58;;;;;;;35.19;32.86;100081.00;1434175;90;21477;-81
2021/07/28 10:37:04;;;;;;;25.68;7.05;;;;;;;35.28;33.18;100074.14;1430750;90;22117;-80
2021/07/28 10:39:46;;;;;;;34.63;7.15;;;;;;;35.41;33.31;100073.73;1430870;90;21640;-81
2021/07/28 10:42:31;;;;;;;50.83;7.50;;;;;;;35.44;33.47;100077.21;1428417;91;21470;-82
2021/07/28 10:45:09;;;;;;;27.55;7.17;;;;;;;35.51;33.28;100076.75;1419079;91;22361;-82
2021/07/28 10:47:44;;;;;;;32.03;6.90;;;;;;;35.56;33.03;100071.90;1434862;90;21596;-82
2021/07/28 10:50:33;;;;;;;25.90;6.65;;;;;;;35.49;33.11;100065.48;1435458;90;21604;-81
2021/07/28 10:53:02;;;;;;;25.08;7.60;;;;;;;35.40;33.29;100063.30;1452709;90;21508;-81
2021/07/28 10:55:32;;;;;;;;;;;;;;;35.41;33.24;100058.03;1431473;91;23652;-82
2021/07/28 10:58:13;;;;;;;26.82;7.35;;;;;;;35.39;32.92;100061.69;1423109;91;20273;-82
2021/07/28 11:00:47;;;;;;;27.30;6.22;;;;;;;35.48;33.54;100059.75;1427585;91;22374;-82
2021/07/28 11:03:17;;;;;;;29.65;6.45;;;;;;;35.58;33.62;100060.58;1443892;90;21493;-82
2021/07/28 11:05:52;;;;;;;29.20;6.70;;;;;;;35.58;33.29;100064.14;1435265;90;21509;-83
2021/07/28 11:08:21;;;;;;;25.62;6.87;;;;;;;35.69;33.14;100054.99;1440182;90;21450;-82
2021/07/28 11:10:58;;;;;;;32.63;6.72;;;;;;;35.77;33.33;100058.31;1436233;90;21692;-82
2021/07/28 11:13:28;;;;;;;25.80;7.25;;;;;;;35.92;32.88;100054.23;1449251;89;22219;-83
2021/07/28 11:16:01;;;;;;;29.87;7.08;;;;;;;36.06;32.64;100054.08;1441302;89;21477;-80
2021/07/28 11:22:25;;;;;;;25.77;6.33;;;;;;;36.17;30.56;100055.89;1449597;92;21582;-82
2021/07/28 11:24:58;;;;;;;21.85;6.42;;;;;;;36.10;29.81;100049.52;1468386;92;21527;-82
2021/07/28 11:27:24;;;;;;;27.15;7.33;;;;;;;36.10;29.59;100047.57;1454176;92;22550;-82
2021/07/28 11:30:12;;;;;;;28.27;7.50;;;;;;;36.11;29.52;100045.62;1487222;90;21528;-83
2021/07/28 11:32:39;;;;;;;18.75;6.45;;;;;;;36.19;28.94;100040.66;1448614;91;22799;-82
2021/07/28 11:35:07;;;;;;;22.80;6.90;;;;;;;36.19;29.34;100042.03;1380291;94;21510;-82
2021/07/28 11:37:34;;;;;;;20.52;6.45;;;;;;;36.24;29.42;100037.73;1375947;93;21635;-83
2021/07/28 11:40:01;;;;;;;22.52;6.33;;;;;;;36.30;28.99;100038.36;1393128;93;22597;-83
2021/07/28 11:42:28;;;;;;;26.25;6.15;;;;;;;36.19;28.06;100036.53;1430729;91;22447;-80
2021/07/28 11:44:54;;;;;;;17.98;4.83;;;;;;;36.18;29.24;100027.23;1417104;91;22018;-81
2021/07/28 11:47:27;;;;;;;31.37;6.10;;;;;;;35.91;27.58;100020.39;1420365;91;21680;-82
2021/07/28 11:50:05;;;;;;;26.17;6.45;;;;;;;35.70;27.79;100016.69;1422460;91;21640;-81
2021/07/28 11:52:34;;;;;;;31.23;7.10;;;;;;;35.69;28.33;100006.83;1401725;94;22331;-82
2021/07/28 11:55:00;;;;;;;;;;;;;;;35.76;29.29;100007.13;1311077;97;22212;-82
2021/07/28 11:57:27;;;;;;;20.08;6.58;;;;;;;35.83;27.94;100007.45;1462342;93;20798;-81
2021/07/28 12:00:16;;;;;;;16.32;5.25;;;;;;;35.99;28.05;100004.16;1361785;91;22249;-82
2021/07/28 12:02:42;;;;;;;22.37;6.72;;;;;;;36.12;28.13;100008.70;1361607;91;21459;-81
2021/07/28 12:05:09;;;;;;;15.05;5.70;;;;;;;36.19;27.83;99995.78;1479862;91;21471;-82
2021/07/28 12:07:35;;;;;;;14.68;6.60;;;;;;;36.30;27.13;99995.09;1408674;91;21732;-82
2021/07/28 12:10:04;;;;;;;19.95;6.78;;;;;;;36.41;26.98;99985.09;1414923;91;22521;-83
2021/07/28 12:12:53;;;;;;;;;;;;;;;36.57;26.78;99983.39;1405034;91;21798;-82
2021/07/28 12:15:21;;;;;;;20.88;6.70;;;;;;;36.62;27.83;99980.45;1394706;93;20313;-84
2021/07/28 12:17:51;;;;;;;23.73;6.25;;;;;;;36.55;27.30;99981.56;1384962;93;22102;-82
2021/07/28 12:20:17;;;;;;;18.45;6.55;;;;;;;36.51;27.88;99975.05;1397847;93;22567;-82
2021/07/28 12:22:45;;;;;;;28.20;6.75;;;;;;;36.62;27.83;99976.89;1394292;93;22460;-82
2021/07/28 12:25:24;;;;;;;18.12;6.50;;;;;;;36.86;27.43;99971.56;1453643;95;21503;-82
2021/07/28 12:28:03;;;;;;;24.85;6.75;;;;;;;36.89;27.13;99966.75;1453607;95;21509;-82
2021/07/28 12:30:38;;;;;;;26.55;7.22;;;;;;;36.98;26.89;99969.45;1465273;92;21528;-83
2021/07/28 12:33:16;;;;;;;16.80;6.15;;;;;;;37.09;26.87;99958.82;1509240;90;21317;-83
2021/07/28 12:35:55;;;;;;;26.77;6.60;;;;;;;36.81;27.41;99960.72;1378844;91;21561;-83
2021/07/28 12:38:27;;;;;;;16.93;6.80;;;;;;;36.82;27.99;99959.56;1464231;91;21405;-82
2021/07/28 12:41:04;;;;;;;23.87;6.47;;;;;;;36.79;27.91;99945.88;1446602;91;21361;-87
2021/07/28 12:43:36;;;;;;;20.65;6.50;;;;;;;37.04;27.72;99950.20;1363745;95;22423;-82
2021/07/28 12:46:13;;;;;;;19.20;6.33;;;;;;;37.26;27.45;99947.09;1468603;90;21641;-82
2021/07/28 12:48:58;;;;;;;23.92;5.92;;;;;;;37.53;27.24;99949.63;1429934;90;22212;-82
2021/07/28 12:51:28;;;;;;;23.02;5.83;;;;;;;37.59;26.40;99946.30;1416514;92;21496;-81
2021/07/28 12:53:55;;;;;;;18.70;6.10;;;;;;;37.65;26.54;99935.27;1419635;91;21487;-84
2021/07/28 12:56:21;;;;;;;27.50;6.85;;;;;;;37.84;26.36;99942.23;1420919;90;21444;-81
2021/07/28 12:58:47;;;;;;;21.23;6.25;;;;;;;38.02;26.13;99938.13;1436750;90;21471;-81
2021/07/28 13:01:14;;;;;;;20.70;6.45;;;;;;;38.17;26.23;99938.02;1436784;90;21545;-81
2021/07/28 13:03:42;;;;;;;27.62;6.10;;;;;;;38.41;25.99;99931.69;1426736;90;21597;-81
2021/07/28 13:06:10;;;;;;;22.05;6.28;;;;;;;38.52;24.82;99927.89;1421955;90;23310;-81
2021/07/28 13:08:36;;;;;;;19.07;6.87;;;;;;;38.71;24.99;99927.29;1422538;90;22612;-83
2021/07/28 13:11:04;;;;;;;24.55;6.78;;;;;;;38.86;25.53;99921.05;1422627;90;22469;-83
2021/07/28 13:13:31;;;;;;;17.85;6.97;;;;;;;39.15;25.55;99916.33;1435914;90;22594;-83
2021/07/28 13:15:59;;;;;;;20.50;6.47;;;;;;;39.13;25.49;99914.48;1400006;91;22463;-82
2021/07/28 13:18:33;;;;;;;22.90;5.70;;;;;;;39.38;24.37;99910.48;1399454;92;21518;-83
2021/07/28 13:20:59;;;;;;;16.67;6.12;;;;;;;39.65;24.13;99901.91;1395939;91;21451;-83
2021/07/28 13:23:25;;;;;;;18.27;5.50;;;;;;;39.89;23.50;99902.92;1386116;93;21718;-83
2021/07/28 13:25:54;;;;;;;19.95;6.22;;;;;;;40.18;22.37;99903.03;1380410;94;22582;-83
2021/07/28 13:28:21;;;;;;;15.20;4.95;;;;;;;40.24;20.87;99909.13;1383891;94;23530;-83
2021/07/28 13:30:47;;;;;;;24.15;7.28;;;;;;;40.04;20.56;99897.95;1389123;94;21496;-83
2021/07/28 13:33:13;;;;;;;14.18;5.42;;;;;;;40.04;20.53;99894.37;1386835;92;21622;-83
2021/07/28 13:35:39;;;;;;;19.20;5.92;;;;;;;40.01;20.07;99887.58;1385571;94;21481;-82
2021/07/28 13:38:05;;;;;;;16.80;5.28;;;;;;;40.20;20.19;99884.11;1390302;94;21481;-83
2021/07/28 13:40:32;;;;;;;20.97;6.00;;;;;;;40.29;19.33;99890.25;1392626;94;21599;-83
2021/07/28 13:43:00;;;;;;;23.90;6.17;;;;;;;40.25;19.05;99893.51;1388613;94;21472;-83
2021/07/28 13:45:26;;;;;;;32.83;6.28;;;;;;;40.34;19.26;99885.82;1381361;94;22384;-82
2021/07/28 13:47:52;;;;;;;18.15;6.12;;;;;;;40.55;19.10;99881.91;1317430;94;21431;-84
2021/07/28 13:50:20;;;;;;;24.40;5.40;;;;;;;40.82;18.96;99878.14;1401420;93;22318;-83
2021/07/28 13:52:47;;;;;;;13.95;5.12;;;;;;;40.91;18.66;99876.53;1290274;97;21493;-82
2021/07/28 13:55:14;;;;;;;16.23;5.77;;;;;;;41.03;19.22;99869.47;1314706;96;21547;-83
2021/07/28 13:57:41;;;;;;;15.20;5.30;;;;;;;41.25;19.07;99872.07;1376950;94;23277;-84
2021/07/28 14:00:11;;;;;;;14.73;4.72;;;;;;;41.19;18.89;99874.14;1317192;94;21444;-83
2021/07/28 14:02:40;;;;;;;13.30;5.28;;;;;;;41.22;18.87;99877.56;1459530;94;22423;-83
2021/07/28 14:05:07;;;;;;;23.07;5.00;;;;;;;41.00;18.14;99873.53;1323185;94;21394;-83
2021/07/28 14:07:35;;;;;;;18.77;5.70;;;;;;;40.88;17.99;99861.21;1340605;92;21423;-82
2021/07/28 14:10:01;;;;;;;18.40;5.47;;;;;;;41.07;18.39;99862.63;1478209;93;21401;-83
2021/07/28 14:12:27;;;;;;;22.13;6.47;;;;;;;40.96;18.17;99852.66;1372438;92;21688;-84
2021/07/28 14:14:54;;;;;;;16.90;6.10;;;;;;;40.98;17.87;99862.81;1417618;90;21882;-84
2021/07/28 14:17:20;;;;;;;21.07;5.28;;;;;;;40.93;17.64;99860.33;1440335;90;21457;-83
2021/07/28 14:19:47;;;;;;;17.35;4.80;;;;;;;40.79;17.54;99862.23;1444266;90;21554;-83
2021/07/28 14:22:13;;;;;;;19.30;5.45;;;;;;;40.76;17.22;99861.58;1433462;90;21494;-84
2021/07/28 14:24:39;;;;;;;20.43;6.03;;;;;;;40.93;17.09;99853.98;1430549;91;21894;-82
2021/07/28 14:27:06;;;;;;;19.30;5.65;;;;;;;40.84;17.12;99843.70;1435776;90;21651;-83
2021/07/28 14:29:32;;;;;;;22.37;5.90;;;;;;;41.03;17.14;99849.21;1439680;90;22054;-83
2021/07/28 14:31:58;;;;;;;26.48;6.20;;;;;;;41.10;17.08;99844.44;1441407;90;22448;-82
2021/07/28 14:34:26;;;;;;;28.40;4.97;;;;;;;41.29;17.58;99842.19;1422717;90;21576;-83
2021/07/28 14:36:53;;;;;;;12.47;5.08;;;;;;;41.58;16.99;99832.40;1428260;90;21648;-82
2021/07/28 14:39:19;;;;;;;11.68;5.40;;;;;;;41.26;17.50;99836.22;1425116;90;21583;-83
2021/07/28 14:41:45;;;;;;;16.90;5.15;;;;;;;41.19;17.84;99833.30;1427396;90;21629;-83
2021/07/28 14:44:13;;;;;;;19.60;4.92;;;;;;;41.24;17.30;99834.98;1431601;90;21919;-83
2021/07/28 14:46:43;;;;;;;23.07;5.78;;;;;;;41.64;17.87;99835.11;1432008;91;22857;-84
2021/07/28 14:49:10;;;;;;;29.67;5.40;;;;;;;41.93;17.46;99830.82;1430854;90;22512;-83
2021/07/28 14:51:38;;;;;;;16.60;5.05;;;;;;;42.20;17.21;99822.45;1423352;90;21463;-83
2021/07/28 14:54:06;;;;;;;14.55;5.15;;;;;;;42.20;17.09;99816.90;1424761;91;22314;-83
2021/07/28 14:56:35;;;;;;;22.15;5.85;;;;;;;42.22;17.01;99821.50;1428552;90;21663;-83
2021/07/28 14:59:02;;;;;;;22.00;4.15;;;;;;;42.13;16.51;99821.19;1429340;90;21494;-84
2021/07/28 15:01:28;;;;;;;21.82;5.28;;;;;;;42.11;16.43;99811.62;1426446;90;21486;-84
2021/07/28 15:03:54;;;;;;;18.67;4.50;;;;;;;41.89;16.59;99814.64;1429366;90;21383;-83
2021/07/28 15:06:20;;;;;;;14.75;5.05;;;;;;;41.88;16.86;99813.84;1427503;90;22352;-82
2021/07/28 15:08:46;;;;;;;28.73;6.12;;;;;;;41.62;16.99;99813.24;1422564;90;21377;-83
2021/07/28 15:11:13;;;;;;;20.25;4.83;;;;;;;42.06;16.98;99807.17;1436377;90;21427;-82
2021/07/28 15:13:40;;;;;;;14.03;4.70;;;;;;;41.81;16.76;99807.36;1436236;90;21921;-82
2021/07/28 15:16:08;;;;;;;;;;;;;;;41.55;17.14;99809.53;1447802;89;21714;-82
2021/07/28 15:18:34;;;;;;;14.68;6.05;;;;;;;40.97;18.12;99816.00;1452306;89;20329;-82
2021/07/28 15:21:03;;;;;;;16.02;4.17;;;;;;;41.01;17.65;99807.18;1454908;89;21523;-83
2021/07/28 15:23:32;;;;;;;15.65;4.80;;;;;;;40.90;17.75;99807.56;1441688;89;21694;-82
2021/07/28 15:26:02;;;;;;;29.95;7.03;;;;;;;40.95;17.66;99804.49;1459985;89;21603;-82
2021/07/28 15:28:27;;;;;;;16.12;4.10;;;;;;;41.01;17.48;99798.85;1450671;89;21583;-83
2021/07/28 15:30:54;;;;;;;14.53;4.75;;;;;;;41.02;17.27;99808.77;1447055;89;21383;-82
2021/07/28 15:33:24;;;;;;;23.42;5.50;;;;;;;40.95;17.57;99798.94;1430756;90;21478;-82
2021/07/28 15:35:53;;;;;;;15.48;5.35;;;;;;;41.10;17.32;99792.50;1445168;90;21457;-82
2021/07/28 15:38:19;;;;;;;19.52;5.00;;;;;;;41.03;17.36;99790.94;1455909;90;21692;-83
2021/07/28 15:40:45;;;;;;;18.73;4.62;;;;;;;40.84;17.60;99793.77;1438379;90;21463;-82
2021/07/28 15:43:12;;;;;;;13.05;4.50;;;;;;;40.51;17.49;99788.13;1429445;91;21641;-81
2021/07/28 15:45:38;;;;;;;19.75;5.95;;;;;;;40.29;17.78;99782.75;1427224;91;22499;-82
2021/07/28 15:48:05;;;;;;;20.12;5.28;;;;;;;40.04;18.33;99778.80;1444809;90;21449;-82
2021/07/28 15:50:32;;;;;;;14.20;4.97;;;;;;;39.60;18.81;99772.63;1446818;90;21589;-83
2021/07/28 15:52:58;;;;;;;22.25;4.42;;;;;;;39.02;19.20;99775.89;1446149;90;21619;-82
2021/07/28 15:55:24;;;;;;;30.43;5.37;;;;;;;38.45;19.76;99768.76;1444952;90;21463;-82
2021/07/28 15:57:52;;;;;;;20.70;5.67;;;;;;;37.74;20.21;99754.91;1426946;91;21726;-82
2021/07/28 16:00:20;;;;;;;17.10;4.90;;;;;;;37.74;20.21;99754.91;1435692;91;22493;-82
2021/07/28 16:02:50;;;;;;;11.93;4.75;;;;;;;37.48;21.15;99764.34;1405802;91;22664;-82
2021/07/28 16:05:16;;;;;;;22.37;5.17;;;;;;;37.14;21.59;99756.69;1431074;91;22060;-81
2021/07/28 16:07:43;;;;;;;17.35;5.15;;;;;;;36.84;21.96;99760.73;1428636;91;22388;-81
2021/07/28 16:10:11;;;;;;;18.90;4.97;;;;;;;36.53;22.33;99749.02;1430590;91;21537;-81
2021/07/28 16:12:38;;;;;;;19.60;5.78;;;;;;;36.30;22.58;99755.42;1422950;91;21456;-81
2021/07/28 16:15:29;;;;;;;16.23;4.72;;;;;;;36.06;22.89;99754.72;1432936;90;21463;-82
2021/07/28 16:18:03;;;;;;;22.65;6.30;;;;;;;35.85;23.21;99757.42;1436085;90;21560;-83
2021/07/28 16:20:30;;;;;;;16.62;4.58;;;;;;;35.72;23.65;99752.95;1443752;90;22258;-82
2021/07/28 16:23:24;;;;;;;22.87;5.00;;;;;;;35.60;24.19;99752.86;1439905;90;21472;-82
2021/07/28 16:25:51;;;;;;;20.92;5.22;;;;;;;35.44;23.67;99750.62;1444939;90;21531;-82
2021/07/28 16:28:19;;;;;;;17.73;5.12;;;;;;;35.33;24.22;99754.07;1456632;90;22270;-82
2021/07/28 16:30:47;;;;;;;20.37;5.12;;;;;;;35.22;25.01;99753.08;1449508;90;21613;-82
2021/07/28 16:33:14;;;;;;;20.25;5.20;;;;;;;35.23;24.75;99751.13;1448158;90;21433;-82
2021/07/28 16:35:43;;;;;;;19.67;6.30;;;;;;;35.21;25.04;99754.77;1448471;90;22403;-82
2021/07/28 16:38:09;;;;;;;;;;;;;;;35.14;25.04;99755.28;1443304;90;22528;-82
2021/07/28 16:40:38;;;;;;;25.15;6.28;;;;;;;35.09;25.77;99751.33;1450380;90;20285;-82
2021/07/28 16:43:05;;;;;;;24.35;5.05;;;;;;;35.00;25.73;99755.44;1446860;89;21523;-82
2021/07/28 16:45:32;;;;;;;47.80;6.12;;;;;;;34.90;25.88;99753.06;1445488;90;21652;-82
2021/07/28 16:47:59;;;;;;;98.03;7.92;;;;;;;34.79;25.63;99755.91;1446790;90;21500;-82
2021/07/28 16:50:27;;;;;;;45.58;7.47;;;;;;;34.72;25.97;99755.00;1453854;90;21493;-82
2021/07/28 16:52:53;;;;;;;21.90;4.83;;;;;;;34.69;26.38;99751.53;1427304;89;22157;-81
2021/07/28 16:55:20;;;;;;;35.35;6.15;;;;;;;34.61;26.70;99751.55;1440389;89;22559;-82
2021/07/28 16:57:48;;;;;;;69.77;10.43;;;;;;;34.53;26.95;99749.84;1424719;89;21369;-81
2021/07/28 17:00:17;;;;;;;34.55;8.18;;;;;;;34.42;27.05;99750.49;1422146;90;21598;-81
2021/07/28 17:02:46;;;;;;;;;;;;;;;34.31;27.40;99749.42;1438756;90;21523;-81
2021/07/28 17:05:19;;;;;;;24.33;6.03;;;;;;;34.19;27.96;99742.97;1443603;90;20463;-81
2021/07/28 17:07:47;;;;;;;19.35;5.60;;;;;;;34.08;27.83;99747.96;1449842;90;23152;-81
2021/07/28 17:10:15;;;;;;;24.35;5.95;;;;;;;34.00;28.04;99748.72;1441379;90;21873;-81
2021/07/28 17:12:42;;;;;;;21.12;6.15;;;;;;;33.92;28.71;99753.06;1489087;90;21368;-82
2021/07/28 17:15:10;;;;;;;21.35;5.80;;;;;;;33.82;28.96;99752.80;1415857;90;21360;-81
2021/07/28 17:17:38;;;;;;;26.73;6.53;;;;;;;33.73;29.49;99747.06;1418388;91;21618;-81
2021/07/28 17:20:10;;;;;;;29.00;7.75;;;;;;;33.62;29.99;99750.08;1417881;91;22313;-81
2021/07/28 17:22:37;;;;;;;19.23;6.65;;;;;;;33.50;31.50;99751.80;1427040;91;21515;-81
2021/07/28 17:25:11;;;;;;;17.55;6.75;;;;;;;33.32;32.13;99753.63;1440089;89;22323;-81
2021/07/28 17:27:40;;;;;;;23.77;6.97;;;;;;;33.07;33.00;99749.09;1407679;91;21591;-82
2021/07/28 17:30:11;;;;;;;24.23;7.05;;;;;;;32.83;34.66;99756.80;1351182;92;22241;-81
2021/07/28 17:32:37;;;;;;;27.55;7.78;;;;;;;32.58;36.38;99753.02;1507326;91;22195;-81
2021/07/28 17:35:05;;;;;;;29.52;7.03;;;;;;;32.35;37.55;99756.27;1423853;91;21532;-81
2021/07/28 17:37:46;;;;;;;20.25;7.65;;;;;;;32.12;38.80;99755.41;1419845;91;21437;-83
2021/07/28 17:40:19;;;;;;;24.98;6.97;;;;;;;31.94;39.81;99758.27;1429485;91;21441;-81
2021/07/28 17:42:47;;;;;;;20.77;6.37;;;;;;;31.73;40.43;99760.03;1420337;91;21413;-81
2021/07/28 17:45:15;;;;;;;33.33;7.22;;;;;;;31.50;41.79;99774.16;1408052;93;22273;-81
2021/07/28 17:47:42;;;;;;;25.60;8.70;;;;;;;31.32;42.64;99771.73;1430673;91;21531;-82
2021/07/28 17:50:11;;;;;;;26.07;9.00;;;;;;;31.12;43.83;99774.84;1424257;91;21416;-82
2021/07/28 17:52:38;;;;;;;23.73;7.97;;;;;;;30.92;45.31;99780.89;1408187;91;21457;-81
2021/07/28 17:55:06;;;;;;;19.77;8.35;;;;;;;30.75;45.02;99782.77;1424047;91;21893;-81
2021/07/28 17:57:32;;;;;;;25.57;8.13;;;;;;;30.56;45.58;99782.81;1421146;91;21368;-82
2021/07/28 17:59:59;;;;;;;22.58;7.45;;;;;;;30.41;46.02;99787.66;1399231;91;22355;-82
2021/07/28 18:02:25;;;;;;;20.23;7.33;;;;;;;30.25;46.29;99793.91;1419486;91;21391;-81
2021/07/28 18:04:52;;;;;;;36.58;19.95;;;;;;;30.07;46.95;99794.92;1422708;90;21362;-81
2021/07/28 18:07:26;;;;;;;17.37;7.53;;;;;;;29.93;47.08;99798.66;1415678;90;21368;-81
2021/07/28 18:09:55;;;;;;;16.50;6.92;;;;;;;29.82;47.17;99803.42;1418434;91;21412;-81
2021/07/28 18:12:22;;;;;;;26.00;8.63;;;;;;;29.68;47.34;99805.46;1429934;91;21443;-81
2021/07/28 18:14:48;;;;;;;24.25;6.55;;;;;;;29.57;47.30;99810.73;1423477;91;21427;-81
2021/07/28 18:17:15;;;;;;;24.47;7.72;;;;;;;29.43;47.49;99809.26;1416249;91;21443;-81